Terminal Aerodrome Forecast
Issued by NWS Twin Cities, MN

Home | Current Version | Previous Version | Text Only | Print | Product List | Glossary Off
Versions: 1 2 3 4 5 6 7 8 9 10 11 12 13 14 15 16 17 18 19

000
FTUS43 KMPX 292331
TAFSTC
TAF
KSTC 292331Z 3000/3024 15006KT P6SM -RA OVC012
     FM300300 VRB04KT 5SM -RASN BR OVC008
     FM300700 30003KT 2SM -SN BR OVC005
     FM302100 33006KT 4SM -SN BR OVC008=

USA.gov is the U.S. government's official web portal to all federal, state and local government web resources and services.